sim
Sign-in with your pilot id or email,
or register
Callsign
Passwort

Schedule Details

Flight Number: RYR967 (1)
Departure: Gothenburg Landvetter Airport (ESGG) at 06:25
Arrival: London Stansted Airport (EGSS) at 08:20
Route: Ryanair Passenger Schedule. Enter filed route here before submitting Pirep.

Weather Information
Getting current METAR information for ESGG 291220Z 19003KT 9999 FEW007 SCT051 09/07 Q1004
Getting current METAR information for EGSS 291220Z AUTO 20014KT 9000 -RA OVC006 12/12 Q1011

Schedule Frequency

Route Map